Terminal Aerodrome Forecast
Issued by NWS

Home | Current Version | Previous Version | Text Only | Print | Product List | Glossary On
Versions: 1 2 3 4 5 6 7 8 9 10 11 12 13 14 15 16
000
FTAK31 PAFA 281133
TAFAGA
TAF
PAGA 281133Z 2812/2912 13007KT P6SM VCSH OVC080
     FM282000 16012G20KT P6SM -SHRA BKN050
     FM290200 19010G20KT P6SM VCSH FEW025 BKN050 BKN100
     FM291000 15006KT P6SM VCSH SCT050 BKN100=

USA.gov is the U.S. government's official web portal to all federal, state and local government web resources and services.